createdAt,value
2023-05-14T00:01:02.974Z,0
2023-05-14T00:06:19.720Z,0
2023-05-14T00:11:36.563Z,0
2023-05-14T00:16:52.077Z,0
2023-05-14T00:22:07.555Z,0
2023-05-14T00:27:22.435Z,0
2023-05-14T00:32:38.780Z,0
2023-05-14T00:37:55.416Z,0
2023-05-14T00:43:11.562Z,0
2023-05-14T00:48:27.090Z,0
2023-05-14T00:53:43.300Z,0
2023-05-14T01:41:10.868Z,0
2023-05-14T01:46:19.941Z,0
2023-05-14T01:51:35.907Z,0
2023-05-14T01:56:52.067Z,0
2023-05-14T02:02:08.168Z,0
2023-05-14T02:07:23.076Z,0
2023-05-14T02:12:38.596Z,0
2023-05-14T02:17:54.988Z,0
2023-05-14T02:23:10.909Z,0
2023-05-14T02:28:25.803Z,0
2023-05-14T02:33:42.318Z,0
2023-05-14T02:38:57.510Z,0
2023-05-14T02:44:12.352Z,0
2023-05-14T02:49:27.889Z,0
2023-05-14T02:54:43.457Z,0
2023-05-14T02:59:59.771Z,0
2023-05-14T03:05:13.839Z,0
2023-05-14T03:10:28.691Z,0
2023-05-14T03:15:44.872Z,0
2023-05-14T03:21:01.057Z,1
2023-05-14T03:26:15.884Z,3
2023-05-14T03:31:32.054Z,5
2023-05-14T03:36:47.592Z,9
2023-05-14T03:42:02.477Z,15
2023-05-14T03:47:18.607Z,23
2023-05-14T03:52:34.846Z,35
2023-05-14T03:57:49.637Z,51
2023-05-14T04:03:06.344Z,59
2023-05-14T04:08:21.990Z,65
2023-05-14T04:13:38.785Z,75
2023-05-14T04:18:55.098Z,100
2023-05-14T04:24:10.430Z,119
2023-05-14T04:29:26.629Z,121
2023-05-14T04:34:41.547Z,110
2023-05-14T04:39:58.254Z,112
2023-05-14T04:45:13.807Z,124
2023-05-14T04:50:29.304Z,137
2023-05-14T04:55:44.207Z,159
2023-05-14T05:01:00.695Z,195
2023-05-14T05:53:39.397Z,181
2023-05-14T05:58:54.303Z,200
2023-05-14T06:04:09.828Z,205
2023-05-14T06:09:24.663Z,207
2023-05-14T06:14:39.615Z,214
2023-05-14T06:19:55.740Z,238
2023-05-14T06:25:11.894Z,243
2023-05-14T06:30:28.044Z,249
2023-05-14T06:35:44.227Z,256
2023-05-14T06:41:01.252Z,265
2023-05-14T06:46:17.794Z,279
2023-05-14T06:51:33.328Z,315
2023-05-14T06:56:48.905Z,788
2023-05-14T07:36:45.545Z,1941
2023-05-14T07:41:55.384Z,2015
2023-05-14T07:47:10.462Z,2236
2023-05-14T12:05:24.085Z,3296
2023-05-14T12:10:39.535Z,3193
2023-05-14T12:15:55.877Z,3205
2023-05-14T12:21:12.511Z,3318
2023-05-14T12:26:28.066Z,3453
2023-05-14T12:31:43.167Z,3126
2023-05-14T12:36:58.556Z,3200
2023-05-14T13:29:36.533Z,1209
2023-05-14T13:34:45.326Z,1116
2023-05-14T13:40:02.126Z,965
2023-05-14T13:45:17.646Z,958
2023-05-14T13:50:35.061Z,785
2023-05-14T13:55:50.875Z,803
2023-05-14T14:01:05.510Z,1450
2023-05-14T14:06:21.003Z,2436
2023-05-14T14:11:36.518Z,2723
2023-05-14T14:16:51.384Z,2314
2023-05-14T14:22:06.441Z,2020
2023-05-14T14:27:21.133Z,2375
2023-05-14T14:32:37.433Z,2583
2023-05-14T14:37:52.883Z,2474
2023-05-14T14:43:07.854Z,587
2023-05-14T14:48:23.254Z,568
2023-05-14T14:53:37.481Z,598
2023-05-14T14:58:52.393Z,948
2023-05-14T15:04:07.869Z,605
2023-05-14T15:09:24.052Z,1498
2023-05-14T15:14:38.955Z,1393
2023-05-14T15:19:54.488Z,1286
2023-05-14T15:25:09.358Z,1494
2023-05-14T15:30:26.134Z,1369
2023-05-14T15:35:42.272Z,1272
2023-05-14T15:40:58.435Z,758
2023-05-14T15:46:14.819Z,871
2023-05-14T15:51:30.124Z,667
2023-05-14T15:56:46.262Z,632
2023-05-14T16:02:01.424Z,659
2023-05-14T16:07:16.056Z,770
2023-05-14T16:12:31.653Z,965
2023-05-14T16:17:47.208Z,888
2023-05-14T16:23:01.970Z,931
2023-05-14T16:28:17.516Z,892
2023-05-14T16:33:33.008Z,912
2023-05-14T16:39:08.772Z,970
2023-05-14T16:44:04.787Z,1037
2023-05-14T16:49:20.827Z,896
2023-05-14T16:54:35.749Z,871
2023-05-14T17:16:24.169Z,473
2023-05-14T17:21:40.050Z,445
2023-05-14T17:26:55.563Z,365
2023-05-14T17:32:12.475Z,335
2023-05-14T17:37:27.854Z,298
2023-05-14T17:42:42.763Z,276
2023-05-14T17:47:59.128Z,287
2023-05-14T17:53:15.066Z,270
2023-05-14T17:58:30.620Z,241
2023-05-14T18:03:45.690Z,187
2023-05-14T18:09:01.640Z,122
2023-05-14T18:14:16.543Z,82
2023-05-14T18:19:32.020Z,56
2023-05-14T18:24:47.572Z,39
2023-05-14T18:30:04.410Z,31
2023-05-14T18:35:19.912Z,27
2023-05-14T18:40:35.421Z,23
2023-05-14T18:45:51.709Z,20
2023-05-14T18:51:07.109Z,16
2023-05-14T18:56:21.954Z,13
2023-05-14T19:01:36.966Z,9
2023-05-14T19:06:53.001Z,6
2023-05-14T19:12:08.567Z,4
2023-05-14T19:17:23.510Z,2
2023-05-14T19:22:39.654Z,2
2023-05-14T19:27:55.754Z,1
2023-05-14T19:33:12.134Z,0
2023-05-14T19:38:28.042Z,0
2023-05-14T19:43:44.207Z,0
2023-05-14T19:48:59.082Z,0
2023-05-14T19:54:13.953Z,0
2023-05-14T19:59:29.576Z,0
2023-05-14T20:04:45.664Z,0
2023-05-14T20:10:01.957Z,0
2023-05-14T20:15:16.737Z,0
2023-05-14T20:20:34.112Z,0
2023-05-14T20:25:47.088Z,0
2023-05-14T21:18:29.791Z,0
2023-05-14T21:23:39.738Z,0
2023-05-14T21:28:54.618Z,0
2023-05-14T21:34:10.759Z,0
2023-05-14T21:39:26.274Z,0
2023-05-14T21:44:42.488Z,0
2023-05-14T21:49:57.328Z,0
2023-05-14T21:55:12.243Z,0
2023-05-14T22:00:27.071Z,0
2023-05-14T22:05:41.980Z,0
2023-05-14T22:10:58.142Z,0
2023-05-14T22:16:14.740Z,0
2023-05-14T22:21:31.067Z,0
2023-05-14T22:26:46.636Z,0
2023-05-14T22:32:00.847Z,0
2023-05-14T22:37:15.730Z,0
2023-05-14T22:42:30.600Z,0
2023-05-14T22:47:45.693Z,0
2023-05-14T22:53:01.628Z,0
2023-05-14T22:58:16.569Z,0
2023-05-14T23:03:32.656Z,0
2023-05-14T23:08:47.555Z,0
2023-05-14T23:14:03.136Z,0
2023-05-14T23:19:37.400Z,0
2023-05-14T23:24:52.070Z,0
2023-05-14T23:30:22.921Z,0
2023-05-14T23:35:38.479Z,0
2023-05-14T23:40:53.961Z,0
2023-05-14T23:46:09.680Z,0
2023-05-14T23:51:25.659Z,0
2023-05-14T23:56:41.176Z,0
